Time;durP1;ratioP1;P1;durP2;ratioP2;P2;SDS_P1;SDS_P2;PMS_P1;PMS_P2;Temp;Humidity;BMP_temperature;BMP_pressure;BME280_temperature;BME280_humidity;BME280_pressure;Samples;Min_cycle;Max_cycle;Signal;HPM_P1;HPM_P2
2022/09/23 00:00:42;;;;;;;;;;;;;;;12.51;56.40;100844.03;5336649;32;34254;-63
2022/09/23 00:03:44;;;;;;;;;;;;;;;12.26;56.98;100843.28;5307033;32;33545;-73
2022/09/23 00:06:46;;;;;;;;;;;;;;;12.25;56.74;100837.16;5338363;32;34598;-73
2022/09/23 00:09:49;;;;;;;;;;;;;;;12.46;56.11;100846.84;5323555;32;33217;-63
2022/09/23 00:12:51;;;;;;;;;;;;;;;11.78;58.47;100842.41;5341501;32;33804;-73
2022/09/23 00:15:52;;;;;;;;;;;;;;;11.31;60.09;100837.06;5312406;32;45660;-62
2022/09/23 00:18:54;;;;;;;;;;;;;;;11.16;61.11;100834.97;5347205;32;34843;-63
2022/09/23 00:21:56;;;;;;;;;;;;;;;11.61;59.76;100839.53;5319182;32;34449;-73
2022/09/23 00:24:58;;;;;;;;;;;;;;;11.54;60.08;100838.03;5300644;32;33897;-74
2022/09/23 00:28:00;;;;;;;;;;;;;;;10.94;62.48;100832.19;5339926;32;34405;-73
2022/09/23 00:31:06;;;;;;;;;;;;;;;10.70;64.03;100828.62;5324040;32;34225;-63
2022/09/23 00:34:09;;;;;;;;;;;;;;;10.78;64.45;100836.25;5340302;32;33265;-65
2022/09/23 00:37:11;;;;;;;;;;;;;;;10.68;64.48;100833.06;5322889;32;33485;-63
2022/09/23 00:40:13;;;;;;;;;;;;;;;10.69;64.78;100834.81;5325787;32;33677;-73
2022/09/23 00:43:16;;;;;;;;;;;;;;;11.06;63.01;100823.03;5307641;32;32946;-74
2022/09/23 00:46:37;;;;;;;;;;;;;;;10.66;64.72;100820.88;5320509;32;33861;-62
2022/09/23 00:49:39;;;;;;;;;;;;;;;10.83;64.00;100824.69;5340653;32;33382;-72
2022/09/23 00:52:41;;;;;;;;;;;;;;;10.60;64.59;100821.94;5329466;32;32956;-63
2022/09/23 00:55:53;;;;;;;;;;;;;;;10.37;65.36;100819.16;5324592;32;33237;-72
2022/09/23 00:58:55;;;;;;;;;;;;;;;10.80;63.61;100824.78;5348116;32;44747;-62
2022/09/23 01:01:58;;;;;;;;;;;;;;;10.91;62.61;100818.31;5310047;32;33628;-63
2022/09/23 01:05:00;;;;;;;;;;;;;;;10.80;62.94;100816.87;5337588;32;33896;-62
2022/09/23 01:08:02;;;;;;;;;;;;;;;10.38;64.07;100829.66;5328987;32;34262;-73
2022/09/23 01:11:08;;;;;;;;;;;;;;;11.15;61.88;100824.53;5338674;32;33743;-73
2022/09/23 01:14:19;;;;;;;;;;;;;;;11.02;62.25;100824.06;5323941;32;32930;-74
2022/09/23 01:17:21;;;;;;;;;;;;;;;10.27;64.58;100827.34;5318888;32;33594;-63
2022/09/23 01:20:23;;;;;;;;;;;;;;;10.00;66.31;100821.16;5320393;32;44716;-75
2022/09/23 01:23:25;;;;;;;;;;;;;;;9.93;66.56;100840.63;5311183;32;33377;-64
2022/09/23 01:26:45;;;;;;;;;;;;;;;10.57;63.83;100828.16;5321363;32;33248;-63
2022/09/23 01:29:47;;;;;;;;;;;;;;;10.32;64.66;100827.22;5315625;32;33888;-63
2022/09/23 01:33:21;;;;;;;;;;;;;;;10.25;64.68;100828.31;5321746;32;34475;-74
2022/09/23 01:36:26;;;;;;;;;;;;;;;9.82;66.58;100829.56;5314724;32;33887;-62
2022/09/23 01:39:38;;;;;;;;;;;;;;;9.78;65.98;100827.91;5326619;32;34228;-62
2022/09/23 01:42:45;;;;;;;;;;;;;;;9.96;65.51;100824.75;5327935;32;32931;-62
2022/09/23 01:45:47;;;;;;;;;;;;;;;9.58;66.94;100825.84;5306000;32;33870;-62
2022/09/23 01:48:50;;;;;;;;;;;;;;;10.43;64.32;100826.87;5349527;32;33814;-64
2022/09/23 01:52:14;;;;;;;;;;;;;;;11.08;61.53;100819.47;5314775;32;44397;-73
2022/09/23 01:55:18;;;;;;;;;;;;;;;10.32;63.32;100821.09;5318999;32;34299;-72
2022/09/23 01:58:27;;;;;;;;;;;;;;;9.57;65.89;100813.63;5340008;32;33949;-73
2022/09/23 02:01:35;;;;;;;;;;;;;;;9.90;64.65;100805.69;5326146;32;44564;-63
2022/09/23 02:04:39;;;;;;;;;;;;;;;10.58;62.04;100813.25;5335006;32;33527;-73
2022/09/23 02:07:42;;;;;;;;;;;;;;;10.35;63.19;100815.75;5321021;32;33529;-64
2022/09/23 02:10:48;;;;;;;;;;;;;;;9.64;65.48;100820.44;5314119;32;35112;-61
2022/09/23 02:14:10;;;;;;;;;;;;;;;10.11;63.38;100814.69;5340445;32;33069;-73
2022/09/23 02:17:13;;;;;;;;;;;;;;;10.81;61.58;100815.97;5317915;32;33441;-64
2022/09/23 02:20:15;;;;;;;;;;;;;;;10.63;60.13;100811.34;5332309;32;34024;-63
2022/09/23 02:23:21;;;;;;;;;;;;;;;9.64;64.38;100823.06;5299774;32;33045;-63
2022/09/23 02:26:28;;;;;;;;;;;;;;;10.10;63.37;100815.59;5310087;32;44472;-74
2022/09/23 02:29:49;;;;;;;;;;;;;;;9.74;65.13;100816.66;5330838;32;33594;-73
2022/09/23 02:32:50;;;;;;;;;;;;;;;10.01;64.31;100812.34;5326380;32;34475;-63
2022/09/23 02:35:57;;;;;;;;;;;;;;;10.17;64.34;100812.72;5340571;32;44763;-63
2022/09/23 02:39:00;;;;;;;;;;;;;;;10.23;63.62;100804.69;5326684;32;33076;-73
2022/09/23 02:42:06;;;;;;;;;;;;;;;10.68;62.04;100811.16;5312324;32;33919;-63
2022/09/23 02:45:08;;;;;;;;;;;;;;;10.38;62.88;100805.16;5314850;32;34541;-72
2022/09/23 02:48:15;;;;;;;;;;;;;;;10.64;62.37;100810.44;5333375;32;33323;-63
2022/09/23 02:51:17;;;;;;;;;;;;;;;10.98;61.27;100810.16;5327896;32;34021;-73
2022/09/23 02:54:21;;;;;;;;;;;;;;;10.20;63.91;100817.91;5314104;32;32877;-73
2022/09/23 02:57:23;;;;;;;;;;;;;;;10.60;62.61;100816.69;5339767;32;44724;-73
2022/09/23 03:00:24;;;;;;;;;;;;;;;10.56;62.28;100817.69;5314211;32;34136;-72
2022/09/23 03:03:45;;;;;;;;;;;;;;;10.24;63.42;100818.69;5327862;32;34616;-73
2022/09/23 03:07:00;;;;;;;;;;;;;;;9.81;65.51;100816.47;5336955;32;33738;-73
2022/09/23 03:10:04;;;;;;;;;;;;;;;9.95;65.32;100819.56;5313137;32;33503;-62
2022/09/23 03:13:06;;;;;;;;;;;;;;;9.63;65.86;100813.47;5342593;32;33013;-62
2022/09/23 03:16:15;;;;;;;;;;;;;;;9.98;64.64;100812.47;5323483;32;33372;-64
2022/09/23 03:19:16;;;;;;;;;;;;;;;9.22;66.39;100806.75;5313023;32;33051;-63
2022/09/23 03:22:44;;;;;;;;;;;;;;;9.63;66.06;100816.09;5333492;32;34193;-70
2022/09/23 03:25:47;;;;;;;;;;;;;;;8.86;68.79;100816.41;5316030;32;34263;-62
2022/09/23 03:28:49;;;;;;;;;;;;;;;9.57;65.99;100811.00;5336402;32;33248;-62
2022/09/23 03:31:51;;;;;;;;;;;;;;;10.10;64.15;100815.59;5327546;32;33820;-73
2022/09/23 03:34:54;;;;;;;;;;;;;;;9.73;64.65;100816.72;5329651;32;47126;-73
2022/09/23 03:37:57;;;;;;;;;;;;;;;9.96;65.27;100818.66;5332675;32;33592;-63
2022/09/23 03:41:01;;;;;;;;;;;;;;;10.24;62.40;100816.06;5324826;32;33547;-73
2022/09/23 03:44:03;;;;;;;;;;;;;;;10.62;61.75;100821.88;5316016;32;34407;-72
2022/09/23 03:47:05;;;;;;;;;;;;;;;10.23;63.49;100822.22;5306225;33;33649;-64
2022/09/23 03:50:07;;;;;;;;;;;;;;;9.84;65.66;100826.87;5320293;32;32715;-63
2022/09/23 03:53:12;;;;;;;;;;;;;;;9.36;67.39;100822.12;5324584;32;32882;-61
2022/09/23 03:56:14;;;;;;;;;;;;;;;10.01;65.58;100816.75;5329633;32;33669;-72
2022/09/23 03:59:16;;;;;;;;;;;;;;;10.72;62.79;100808.41;5337827;32;33465;-61
2022/09/23 04:02:18;;;;;;;;;;;;;;;10.78;62.08;100807.34;5317841;32;33765;-62
2022/09/23 04:05:20;;;;;;;;;;;;;;;10.22;64.48;100818.72;5334368;32;34426;-74
2022/09/23 04:08:22;;;;;;;;;;;;;;;9.99;65.27;100815.94;5306196;32;45629;-63
2022/09/23 04:11:24;;;;;;;;;;;;;;;10.21;65.31;100814.38;5329596;32;32479;-71
2022/09/23 04:14:26;;;;;;;;;;;;;;;9.54;67.36;100826.00;5298889;32;33273;-62
2022/09/23 04:17:27;;;;;;;;;;;;;;;9.29;69.11;100820.56;5329404;32;33705;-73
2022/09/23 04:20:29;;;;;;;;;;;;;;;9.84;67.00;100821.62;5330276;32;33583;-62
2022/09/23 04:23:31;;;;;;;;;;;;;;;9.67;67.32;100822.12;5309732;32;34307;-64
2022/09/23 04:26:33;;;;;;;;;;;;;;;9.54;68.44;100829.47;5338068;32;33733;-64
2022/09/23 04:29:35;;;;;;;;;;;;;;;9.64;67.47;100817.81;5309708;32;33323;-62
2022/09/23 04:32:37;;;;;;;;;;;;;;;9.38;67.29;100826.41;5341359;32;33260;-72
2022/09/23 04:35:39;;;;;;;;;;;;;;;10.48;64.06;100827.59;5324474;32;33154;-64
2022/09/23 04:38:45;;;;;;;;;;;;;;;10.83;62.43;100823.84;5325797;32;33639;-64
2022/09/23 04:41:47;;;;;;;;;;;;;;;10.67;62.42;100831.34;5341514;32;33005;-63
2022/09/23 04:44:48;;;;;;;;;;;;;;;10.72;62.41;100831.19;5300741;32;33191;-73
2022/09/23 04:47:50;;;;;;;;;;;;;;;10.69;62.42;100834.81;5340700;32;34146;-72
2022/09/23 04:50:52;;;;;;;;;;;;;;;10.95;61.75;100835.69;5311556;32;44812;-63
2022/09/23 04:53:54;;;;;;;;;;;;;;;10.94;61.72;100829.56;5323176;32;35283;-62
2022/09/23 04:56:56;;;;;;;;;;;;;;;10.91;62.02;100827.06;5324933;32;33439;-73
2022/09/23 04:59:58;;;;;;;;;;;;;;;9.86;64.94;100840.84;5315386;32;33147;-66
2022/09/23 05:03:00;;;;;;;;;;;;;;;10.05;66.31;100839.41;5325838;32;34299;-73
2022/09/23 05:06:02;;;;;;;;;;;;;;;10.49;64.09;100840.66;5321479;32;33817;-73
2022/09/23 05:09:06;;;;;;;;;;;;;;;10.13;65.54;100841.78;5322258;32;33468;-73
2022/09/23 05:12:08;;;;;;;;;;;;;;;10.71;63.75;100840.00;5305127;33;34012;-63
2022/09/23 05:15:11;;;;;;;;;;;;;;;10.94;63.03;100841.88;5332417;32;32863;-64
2022/09/23 05:18:13;;;;;;;;;;;;;;;11.23;62.02;100849.63;5335866;32;36218;-63
2022/09/23 05:21:22;;;;;;;;;;;;;;;10.41;64.59;100847.94;5315478;32;34088;-72
2022/09/23 05:24:24;;;;;;;;;;;;;;;10.81;64.80;100851.94;5322795;32;44669;-64
2022/09/23 05:27:26;;;;;;;;;;;;;;;10.90;62.52;100853.41;5320481;32;33972;-74
2022/09/23 05:30:27;;;;;;;;;;;;;;;11.70;61.44;100856.75;5329203;32;33940;-73
2022/09/23 05:33:30;;;;;;;;;;;;;;;13.04;55.06;100853.31;5308393;32;34035;-63
2022/09/23 05:36:32;;;;;;;;;;;;;;;13.44;54.69;100852.50;5341162;32;33706;-74
2022/09/23 05:39:39;;;;;;;;;;;;;;;14.33;51.83;100850.19;5327799;32;34272;-71
2022/09/23 05:42:41;;;;;;;;;;;;;;;13.79;53.53;100851.81;5316578;32;32885;-71
2022/09/23 05:45:42;;;;;;;;;;;;;;;13.93;51.87;100847.69;5332273;32;34406;-62
2022/09/23 05:48:46;;;;;;;;;;;;;;;15.54;48.42;100849.50;5325188;32;33314;-63
2022/09/23 05:51:50;;;;;;;;;;;;;;;14.93;48.10;100849.97;5330539;32;33237;-67
2022/09/23 05:54:53;;;;;;;;;;;;;;;15.51;46.80;100851.44;5326013;32;33203;-66
2022/09/23 05:57:55;;;;;;;;;;;;;;;13.97;51.25;100857.16;5320556;32;44388;-63
2022/09/23 06:00:57;;;;;;;;;;;;;;;14.74;49.48;100852.66;5320734;32;33156;-64
2022/09/23 06:03:59;;;;;;;;;;;;;;;15.08;47.97;100854.50;5312647;32;33037;-64
2022/09/23 06:07:01;;;;;;;;;;;;;;;16.45;45.39;100846.31;5333199;32;34836;-65
2022/09/23 06:10:05;;;;;;;;;;;;;;;14.93;48.34;100849.97;5321982;32;32990;-64
2022/09/23 06:13:07;;;;;;;;;;;;;;;16.79;44.86;100839.97;5335242;32;33079;-73
2022/09/23 06:16:10;;;;;;;;;;;;;;;17.58;42.31;100836.19;5319563;32;32994;-64
2022/09/23 06:19:12;;;;;;;;;;;;;;;17.04;44.14;100849.19;5306142;32;33983;-65
2022/09/23 06:22:16;;;;;;;;;;;;;;;17.22;43.20;100848.09;5324087;32;33071;-64
2022/09/23 06:25:19;;;;;;;;;;;;;;;16.87;43.97;100851.94;5312251;32;33584;-65
2022/09/23 06:28:21;;;;;;;;;;;;;;;16.92;44.58;100847.22;5320997;32;35286;-65
2022/09/23 06:31:23;;;;;;;;;;;;;;;16.79;45.09;100855.06;5310070;32;45687;-66
2022/09/23 06:34:25;;;;;;;;;;;;;;;16.07;46.57;100867.00;5321994;32;33493;-66
2022/09/23 06:37:27;;;;;;;;;;;;;;;16.33;45.38;100848.81;5311533;32;34565;-73
2022/09/23 06:40:30;;;;;;;;;;;;;;;16.36;46.08;100856.59;5319282;32;33115;-65
2022/09/23 06:43:32;;;;;;;;;;;;;;;16.35;45.51;100865.47;5302576;32;34174;-74
2022/09/23 06:46:35;;;;;;;;;;;;;;;18.58;41.16;100852.94;5316276;32;33135;-63
2022/09/23 06:49:37;;;;;;;;;;;;;;;20.03;37.85;100850.22;5326203;32;34630;-66
2022/09/23 06:52:39;;;;;;;;;;;;;;;17.37;43.34;100866.72;5322648;32;33077;-73
2022/09/23 06:55:42;;;;;;;;;;;;;;;18.75;39.90;100865.19;5320774;32;33269;-74
2022/09/23 06:58:43;;;;;;;;;;;;;;;19.31;38.98;100868.50;5317022;32;33373;-75
2022/09/23 07:01:47;;;;;;;;;;;;;;;18.31;40.88;100860.03;5312690;32;32938;-73
2022/09/23 07:04:50;;;;;;;;;;;;;;;18.71;40.29;100874.31;5328741;32;34303;-73
2022/09/23 07:07:52;;;;;;;;;;;;;;;19.67;37.26;100859.00;5316265;32;34634;-74
2022/09/23 07:10:54;;;;;;;;;;;;;;;18.57;40.77;100871.66;5337072;32;43023;-73
2022/09/23 07:13:56;;;;;;;;;;;;;;;18.64;40.52;100863.19;5317685;32;34485;-77
2022/09/23 07:16:58;;;;;;;;;;;;;;;19.38;39.13;100861.81;5334298;32;33097;-74
2022/09/23 07:20:00;;;;;;;;;;;;;;;18.37;40.37;100865.81;5322012;32;34277;-73
2022/09/23 07:23:02;;;;;;;;;;;;;;;21.66;34.54;100855.03;5313010;32;34017;-73
2022/09/23 07:26:06;;;;;;;;;;;;;;;20.71;35.59;100865.75;5317524;32;32850;-71
2022/09/23 07:29:10;;;;;;;;;;;;;;;18.92;39.84;100870.22;5321462;32;33766;-66
2022/09/23 07:32:12;;;;;;;;;;;;;;;20.40;37.24;100869.75;5336202;32;32794;-65
2022/09/23 07:35:16;;;;;;;;;;;;;;;20.79;36.02;100868.69;5319718;32;33761;-65
2022/09/23 07:38:18;;;;;;;;;;;;;;;19.67;38.38;100865.19;5327429;32;33979;-66
2022/09/23 07:41:20;;;;;;;;;;;;;;;19.85;38.75;100865.72;5326210;32;33163;-65
2022/09/23 07:44:25;;;;;;;;;;;;;;;20.98;35.92;100865.50;5293846;32;44498;-66
2022/09/23 07:47:27;;;;;;;;;;;;;;;20.62;36.69;100861.09;5321284;32;32760;-74
2022/09/23 07:50:30;;;;;;;;;;;;;;;22.01;34.47;100858.44;5319373;32;34559;-72
2022/09/23 07:53:32;;;;;;;;;;;;;;;22.35;33.67;100848.59;5327083;32;32850;-75
2022/09/23 07:56:34;;;;;;;;;;;;;;;21.83;34.67;100854.53;5316070;32;33731;-68
2022/09/23 07:59:36;;;;;;;;;;;;;;;18.06;42.24;100866.91;5326468;32;32740;-71
2022/09/23 08:02:39;;;;;;;;;;;;;;;17.47;43.53;100873.22;5312923;32;33105;-70
2022/09/23 08:05:41;;;;;;;;;;;;;;;17.65;43.17;100871.25;5317253;32;34000;-72
2022/09/23 08:08:44;;;;;;;;;;;;;;;16.93;44.61;100867.53;5330848;32;33027;-70
2022/09/23 08:11:48;;;;;;;;;;;;;;;16.73;45.07;100881.94;5320915;32;34523;-69
2022/09/23 08:14:50;;;;;;;;;;;;;;;16.76;45.03;100877.34;5337956;32;34669;-72
2022/09/23 08:17:52;;;;;;;;;;;;;;;16.50;45.78;100872.59;5323863;32;48350;-71
2022/09/23 08:20:54;;;;;;;;;;;;;;;15.88;46.67;100876.88;5333496;32;34331;-70
2022/09/23 08:23:55;;;;;;;;;;;;;;;15.99;47.16;100871.88;5310929;32;33945;-70
2022/09/23 08:26:57;;;;;;;;;;;;;;;16.37;46.66;100868.94;5321515;32;33181;-70
2022/09/23 08:29:59;;;;;;;;;;;;;;;16.21;47.19;100869.75;5331245;32;33033;-71
2022/09/23 08:33:01;;;;;;;;;;;;;;;16.39;46.20;100861.72;5319721;32;33596;-70
2022/09/23 08:36:03;;;;;;;;;;;;;;;16.58;45.55;100861.56;5339069;32;34125;-70
2022/09/23 08:39:05;;;;;;;;;;;;;;;16.21;47.11;100866.25;5328253;32;34657;-70
2022/09/23 08:42:15;;;;;;;;;;;;;;;15.73;48.35;100860.00;5324306;32;33161;-69
2022/09/23 08:45:23;;;;;;;;;;;;;;;16.07;48.27;100859.06;5312172;32;36150;-70
2022/09/23 08:48:32;;;;;;;;;;;;;;;16.41;46.76;100866.00;5321532;32;44596;-71
2022/09/23 08:51:43;;;;;;;;;;;;;;;16.97;45.38;100847.81;5334564;32;32916;-70
2022/09/23 08:54:45;;;;;;;;;;;;;;;16.10;48.22;100861.56;5321731;32;32883;-70
2022/09/23 08:57:57;;;;;;;;;;;;;;;16.70;46.39;100860.91;5324660;32;34770;-70
2022/09/23 09:01:42;;;;;;;;;;;;;;;16.75;46.53;100856.19;5323381;32;33796;-72
2022/09/23 09:04:49;;;;;;;;;;;;;;;16.74;46.55;100851.78;5310561;32;33093;-72
2022/09/23 09:07:51;;;;;;;;;;;;;;;16.91;45.52;100857.00;5326638;32;33101;-71
2022/09/23 09:10:53;;;;;;;;;;;;;;;18.15;43.31;100844.19;5317902;32;44921;-72
2022/09/23 09:14:18;;;;;;;;;;;;;;;21.15;36.82;100834.84;5328225;32;33547;-67
2022/09/23 09:17:27;;;;;;;;;;;;;;;22.26;34.74;100832.41;5324507;32;34179;-69
2022/09/23 09:20:48;;;;;;;;;;;;;;;22.97;32.11;100834.53;5325007;32;32837;-73
2022/09/23 09:23:54;;;;;;;;;;;;;;;21.51;34.75;100835.66;5334036;32;34202;-70
2022/09/23 09:26:56;;;;;;;;;;;;;;;23.47;32.29;100836.59;5324833;32;46208;-72
2022/09/23 09:30:00;;;;;;;;;;;;;;;23.12;32.75;100827.06;5334318;32;33004;-72
2022/09/23 09:33:06;;;;;;;;;;;;;;;26.03;27.97;100814.09;5326672;32;32913;-70
2022/09/23 09:36:08;;;;;;;;;;;;;;;26.14;27.22;100813.84;5307674;32;33262;-71
2022/09/23 09:39:11;;;;;;;;;;;;;;;23.37;31.89;100815.06;5330512;32;33082;-72
2022/09/23 09:42:16;;;;;;;;;;;;;;;25.55;27.77;100813.22;5310742;32;32941;-72
2022/09/23 09:45:18;;;;;;;;;;;;;;;26.90;25.99;100816.19;5333122;32;34084;-70
2022/09/23 09:48:22;;;;;;;;;;;;;;;24.04;30.16;100824.47;5324136;32;34221;-74
2022/09/23 09:51:26;;;;;;;;;;;;;;;22.92;32.51;100809.94;5318720;32;44503;-68
2022/09/23 09:54:30;;;;;;;;;;;;;;;26.09;27.59;100797.31;5337963;32;34328;-76
2022/09/23 09:57:35;;;;;;;;;;;;;;;26.08;27.12;100795.59;5319510;32;33860;-69
2022/09/23 10:00:41;;;;;;;;;;;;;;;28.09;24.53;100792.19;5332378;32;34163;-71
2022/09/23 10:03:43;;;;;;;;;;;;;;;26.66;27.03;100789.84;5314493;32;32789;-73
2022/09/23 10:07:06;;;;;;;;;;;;;;;26.58;27.15;100790.63;5334517;32;34768;-72
2022/09/23 10:10:26;;;;;;;;;;;;;;;25.63;27.82;100789.16;5330672;32;33703;-70
2022/09/23 10:13:34;;;;;;;;;;;;;;;28.85;23.61;100773.06;5319576;32;34068;-74
2022/09/23 10:16:36;;;;;;;;;;;;;;;27.22;25.37;100781.41;5325838;32;32577;-74
2022/09/23 10:19:38;;;;;;;;;;;;;;;24.52;29.88;100796.87;5321710;32;32907;-73
2022/09/23 10:22:41;;;;;;;;;;;;;;;24.38;29.80;100784.72;5319818;32;32626;-75
2022/09/23 10:25:44;;;;;;;;;;;;;;;27.48;25.68;100778.72;5318909;32;34551;-74
2022/09/23 10:28:46;;;;;;;;;;;;;;;28.63;24.02;100773.75;5316122;32;32741;-73
2022/09/23 10:31:51;;;;;;;;;;;;;;;24.79;29.39;100783.59;5336897;32;32292;-68
2022/09/23 10:35:13;;;;;;;;;;;;;;;27.21;25.36;100781.56;5324546;32;43435;-73
2022/09/23 10:38:15;;;;;;;;;;;;;;;25.24;27.46;100783.00;5334676;32;36684;-72
2022/09/23 10:48:18;;;;;;;;;;;;;;;22.85;31.10;100768.53;5339180;32;33528;-70
2022/09/23 10:51:32;;;;;;;;;;;;;;;21.16;35.25;100776.88;5313231;32;34605;-70
2022/09/23 10:54:49;;;;;;;;;;;;;;;19.65;38.31;100788.94;5327027;32;33091;-71
2022/09/23 10:58:10;;;;;;;;;;;;;;;19.57;38.49;100785.91;5332412;32;34367;-71
2022/09/23 11:01:15;;;;;;;;;;;;;;;19.60;38.48;100781.25;5320173;32;35300;-70
2022/09/23 11:04:17;;;;;;;;;;;;;;;20.00;37.28;100781.91;5337036;32;32995;-70
2022/09/23 11:07:34;;;;;;;;;;;;;;;18.86;39.80;100777.44;5323446;32;34081;-68
2022/09/23 11:10:48;;;;;;;;;;;;;;;20.03;37.81;100764.84;5328882;32;34175;-67
2022/09/23 11:14:15;;;;;;;;;;;;;;;21.92;33.49;100757.50;5316424;32;33581;-73
2022/09/23 11:17:33;;;;;;;;;;;;;;;22.14;32.98;100759.31;5311802;32;34516;-77
2022/09/23 11:20:58;;;;;;;;;;;;;;;22.11;33.32;100747.03;5331367;32;32952;-67
2022/09/23 11:24:19;;;;;;;;;;;;;;;22.23;32.36;100745.19;5307872;32;44427;-77
2022/09/23 11:27:26;;;;;;;;;;;;;;;21.41;33.62;100739.28;5316331;32;33588;-76
2022/09/23 11:30:47;;;;;;;;;;;;;;;20.68;35.04;100744.94;5339603;32;44429;-79
2022/09/23 11:34:02;;;;;;;;;;;;;;;21.58;32.93;100735.28;5319545;32;33533;-67
2022/09/23 11:37:04;;;;;;;;;;;;;;;21.71;33.41;100729.81;5326487;32;34257;-73
2022/09/23 11:40:12;;;;;;;;;;;;;;;21.08;34.81;100730.22;5327529;32;34496;-67
2022/09/23 11:43:18;;;;;;;;;;;;;;;21.30;33.05;100725.91;5304793;32;34579;-75
2022/09/23 11:46:46;;;;;;;;;;;;;;;21.28;32.93;100728.69;5327407;32;31438;-75
2022/09/23 11:49:48;;;;;;;;;;;;;;;21.78;32.62;100725.66;5313494;32;33806;-67
2022/09/23 11:52:51;;;;;;;;;;;;;;;20.95;33.26;100721.47;5333596;32;33748;-66
2022/09/23 11:56:14;;;;;;;;;;;;;;;20.46;33.92;100719.84;5322457;32;44505;-66
2022/09/23 11:59:36;;;;;;;;;;;;;;;20.78;31.94;100719.22;5318869;32;44969;-67
2022/09/23 12:02:47;;;;;;;;;;;;;;;21.81;31.27;100712.03;5333818;32;33053;-67
2022/09/23 12:06:11;;;;;;;;;;;;;;;22.08;30.67;100712.44;5313130;32;35011;-67
2022/09/23 12:09:14;;;;;;;;;;;;;;;22.03;30.49;100708.47;5312872;32;33305;-68
2022/09/23 12:12:18;;;;;;;;;;;;;;;20.93;31.63;100715.41;5334980;32;33082;-67
2022/09/23 12:15:44;;;;;;;;;;;;;;;20.43;33.95;100711.19;5321953;32;47308;-75
2022/09/23 12:18:53;;;;;;;;;;;;;;;20.94;34.12;100703.72;5339897;32;33153;-66
2022/09/23 12:22:07;;;;;;;;;;;;;;;21.71;32.09;100692.34;5312422;32;43807;-68
2022/09/23 12:25:27;;;;;;;;;;;;;;;22.02;31.85;100696.03;5313993;32;33376;-68
2022/09/23 12:28:30;;;;;;;;;;;;;;;22.67;30.44;100693.25;5325039;32;44637;-68
2022/09/23 12:31:34;;;;;;;;;;;;;;;21.97;31.07;100696.44;5314518;32;35795;-76
2022/09/23 12:34:47;;;;;;;;;;;;;;;21.02;33.18;100687.94;5329553;32;33554;-68
2022/09/23 12:37:49;;;;;;;;;;;;;;;21.18;33.36;100684.91;5324614;32;33867;-76
2022/09/23 12:40:52;;;;;;;;;;;;;;;23.15;30.25;100673.97;5322770;32;34296;-76
2022/09/23 12:43:59;;;;;;;;;;;;;;;22.32;31.74;100676.63;5328410;32;46269;-76
2022/09/23 12:47:13;;;;;;;;;;;;;;;22.21;31.55;100671.31;5309719;32;33526;-68
2022/09/23 12:50:33;;;;;;;;;;;;;;;23.34;26.48;100670.50;5330128;32;33393;-69
2022/09/23 12:53:50;;;;;;;;;;;;;;;22.55;27.30;100666.66;5324041;32;33762;-72
2022/09/23 12:56:54;;;;;;;;;;;;;;;20.83;29.30;100671.66;5323391;32;33723;-67
2022/09/23 12:59:58;;;;;;;;;;;;;;;23.96;26.80;100655.19;5322115;32;44443;-68
2022/09/23 13:06:38;;;;;;;;;;;;;;;24.22;26.81;100644.75;5341932;32;33193;-76
2022/09/23 13:09:40;;;;;;;;;;;;;;;26.11;23.97;100636.41;5308014;32;33516;-69
2022/09/23 13:12:42;;;;;;;;;;;;;;;27.44;22.52;100631.59;5345954;32;33566;-76
2022/09/23 13:15:44;;;;;;;;;;;;;;;24.89;26.10;100637.59;5344161;32;33894;-67
2022/09/23 13:18:48;;;;;;;;;;;;;;;24.04;27.54;100645.44;5325450;32;34461;-67
2022/09/23 13:21:58;;;;;;;;;;;;;;;24.75;26.74;100637.06;5339414;32;33992;-67
2022/09/23 13:25:00;;;;;;;;;;;;;;;23.22;29.12;100648.31;5313041;32;45130;-68
2022/09/23 13:28:02;;;;;;;;;;;;;;;22.18;29.91;100637.63;5341771;32;33127;-68
2022/09/23 13:31:05;;;;;;;;;;;;;;;22.25;30.36;100643.31;5322653;32;35915;-69
2022/09/23 13:34:07;;;;;;;;;;;;;;;20.47;32.55;100645.94;5321970;32;33451;-75
2022/09/23 13:37:22;;;;;;;;;;;;;;;21.86;30.51;100641.13;5341251;32;34581;-67
2022/09/23 13:40:25;;;;;;;;;;;;;;;20.94;31.70;100639.63;5325426;32;47350;-67
2022/09/23 13:43:30;;;;;;;;;;;;;;;19.67;33.75;100635.00;5329044;32;33128;-66
2022/09/23 13:46:42;;;;;;;;;;;;;;;20.05;33.35;100631.34;5321594;32;32951;-67
2022/09/23 13:49:46;;;;;;;;;;;;;;;19.92;33.35;100637.56;5330385;32;33735;-67
2022/09/23 13:53:13;;;;;;;;;;;;;;;19.18;34.60;100627.84;5333507;32;33883;-75
2022/09/23 13:56:14;;;;;;;;;;;;;;;19.35;34.57;100639.97;5301831;32;32999;-76
2022/09/23 13:59:26;;;;;;;;;;;;;;;19.21;34.46;100641.81;5339633;32;34001;-74
2022/09/23 14:02:28;;;;;;;;;;;;;;;20.29;32.14;100622.34;5303148;32;44729;-68
2022/09/23 14:05:32;;;;;;;;;;;;;;;19.57;33.15;100639.25;5328512;32;33596;-67
2022/09/23 14:08:34;;;;;;;;;;;;;;;19.09;34.55;100639.16;5333071;32;35792;-75
2022/09/23 14:11:36;;;;;;;;;;;;;;;20.10;33.01;100627.34;5323357;32;33055;-76
2022/09/23 14:14:39;;;;;;;;;;;;;;;19.98;33.33;100623.78;5340822;32;33859;-68
2022/09/23 14:17:44;;;;;;;;;;;;;;;20.94;31.80;100618.25;5328846;32;33820;-77
2022/09/23 14:20:47;;;;;;;;;;;;;;;20.80;32.08;100605.09;5339861;32;33571;-68
2022/09/23 14:23:48;;;;;;;;;;;;;;;20.37;33.09;100612.88;5322663;32;34885;-68
2022/09/23 14:26:54;;;;;;;;;;;;;;;20.89;32.55;100604.38;5333846;32;34105;-66
2022/09/23 14:29:56;;;;;;;;;;;;;;;20.12;33.79;100604.06;5317218;32;45119;-68
2022/09/23 14:32:58;;;;;;;;;;;;;;;20.12;34.17;100608.56;5340469;32;34138;-75
2022/09/23 14:36:05;;;;;;;;;;;;;;;19.28;35.68;100617.41;5341608;32;32820;-68
2022/09/23 14:39:08;;;;;;;;;;;;;;;19.45;35.35;100615.22;5320489;32;32930;-74
2022/09/23 14:42:11;;;;;;;;;;;;;;;19.70;34.74;100603.63;5332713;32;33320;-69
2022/09/23 14:45:14;;;;;;;;;;;;;;;19.64;35.08;100605.88;5313335;32;32971;-67
2022/09/23 14:48:18;;;;;;;;;;;;;;;20.80;32.74;100594.41;5316843;32;33653;-75
2022/09/23 14:51:20;;;;;;;;;;;;;;;19.17;35.13;100605.69;5341075;32;33400;-73
2022/09/23 14:54:35;;;;;;;;;;;;;;;19.43;34.18;100603.81;5321105;32;33349;-67
2022/09/23 14:57:37;;;;;;;;;;;;;;;19.86;33.59;100597.19;5328101;32;34731;-67
2022/09/23 15:00:39;;;;;;;;;;;;;;;20.04;33.03;100590.47;5321244;32;33579;-76
2022/09/23 15:03:47;;;;;;;;;;;;;;;19.61;33.86;100588.31;5333496;32;33092;-68
2022/09/23 15:06:53;;;;;;;;;;;;;;;20.07;33.02;100584.88;5338119;32;33595;-67
2022/09/23 15:09:54;;;;;;;;;;;;;;;20.81;31.68;100588.12;5330769;32;45262;-75
2022/09/23 15:13:23;;;;;;;;;;;;;;;20.52;32.32;100587.72;5340753;32;33829;-75
2022/09/23 15:16:25;;;;;;;;;;;;;;;20.37;32.55;100592.38;5319131;32;44662;-66
2022/09/23 15:19:27;;;;;;;;;;;;;;;19.14;34.55;100591.75;5338250;32;33625;-76
2022/09/23 15:22:29;;;;;;;;;;;;;;;20.02;32.78;100581.72;5308308;32;33829;-72
2022/09/23 15:25:38;;;;;;;;;;;;;;;19.26;34.23;100592.69;5312428;32;34284;-73
2022/09/23 15:28:41;;;;;;;;;;;;;;;19.26;34.20;100588.19;5335555;32;33614;-75
2022/09/23 15:31:43;;;;;;;;;;;;;;;20.40;32.23;100572.59;5323675;32;32902;-74
2022/09/23 15:34:47;;;;;;;;;;;;;;;19.12;34.24;100585.66;5341654;32;33782;-76
2022/09/23 15:37:49;;;;;;;;;;;;;;;20.11;33.07;100580.19;5323847;32;33367;-75
2022/09/23 15:40:51;;;;;;;;;;;;;;;20.62;31.92;100579.84;5324396;32;33624;-67
2022/09/23 15:43:55;;;;;;;;;;;;;;;19.51;33.40;100576.59;5291742;32;44713;-74
2022/09/23 15:47:00;;;;;;;;;;;;;;;20.49;32.03;100564.78;5324969;32;33637;-69
2022/09/23 15:50:02;;;;;;;;;;;;;;;20.14;33.04;100570.09;5340960;32;33062;-66
2022/09/23 15:53:04;;;;;;;;;;;;;;;19.13;33.01;100580.25;5323002;32;33518;-76
2022/09/23 15:56:06;;;;;;;;;;;;;;;19.47;33.63;100570.62;5341794;32;33067;-67
2022/09/23 15:59:08;;;;;;;;;;;;;;;19.78;33.63;100573.75;5322926;32;33893;-67
2022/09/23 16:02:16;;;;;;;;;;;;;;;19.51;34.40;100573.06;5330953;32;32781;-75
2022/09/23 16:05:23;;;;;;;;;;;;;;;19.66;33.55;100570.16;5329791;32;34622;-76